ADDS METAR Data INFO
IDs: Format: Raw Decoded Include TAF

Data at: 1511 UTC 11 Dec 2017

KPMP 111453Z 34011KT 10SM CLR 14/01 A3028 RMK AO2 SLP255 T01390006 52003
KPMP 111353Z 33009KT 10SM CLR 12/02 A3028 RMK AO2 SLP255 T01220017
KPMP 111253Z 34010KT 10SM CLR 11/02 A3028 RMK AO2 SLP253 T01060017
KPMP 111153Z 32006KT 10SM CLR 09/03 A3027 RMK AO2 SLP252 T00940028 10117 20094 53012
KPMP 111053Z AUTO 33008KT 10SM CLR 10/02 A3026 RMK AO2 SLP248 T01000022
KPMP 110953Z AUTO 33010KT 10SM CLR 11/02 A3024 RMK AO2 SLP242 T01060022
KPMP 110853Z AUTO 33010KT 10SM CLR 11/03 A3024 RMK AO2 SLP240 T01110028 55005
KPMP 110753Z AUTO 32009KT 10SM CLR 11/03 A3023 RMK AO2 SLP238 T01110028
KPMP 110653Z AUTO 32010KT 10SM CLR 12/03 A3024 RMK AO2 SLP242 T01170033
KPMP 110553Z AUTO 32011KT 10SM CLR 12/04 A3025 RMK AO2 SLP246 T01170039 10133 20117 56010
KPMP 110453Z AUTO 32010KT 10SM CLR 12/03 A3026 RMK AO2 SLP247 T01220033 401720083
KPMP 110353Z AUTO 32008KT 10SM CLR 12/04 A3028 RMK AO2 SLP253 T01220044
KPMP 110253Z AUTO 32008KT 10SM CLR 12/06 A3029 RMK AO2 SLP256 T01220061 51010
KPMP 110153Z 32010KT 10SM CLR 12/07 A3028 RMK AO2 SLP253 T01220072
KPMP 110053Z 33009KT 10SM CLR 13/08 A3027 RMK AO2 SLP252 T01330078
KPMP 102353Z 33006KT 10SM CLR 13/08 A3026 RMK AO2 SLP246 T01330078 10172 20133 51015
KPMP 102253Z 33005KT 10SM CLR 15/06 A3025 RMK AO2 SLP243 T01500056
KPMP 102153Z 34008KT 10SM CLR 17/06 A3023 RMK AO2 SLP236 T01670056
KPMP 102053Z 02008KT 10SM CLR 17/04 A3021 RMK AO2 SLP232 T01720044 55002
KPMP 101953Z 34008KT 10SM CLR 17/04 A3021 RMK AO2 SLP230 T01720039
KPMP 101853Z 32009KT 10SM CLR 17/04 A3021 RMK AO2 SLP229 T01720039
KPMP 101753Z 36011KT 10SM CLR 16/02 A3022 RMK AO2 SLP233 T01610022 10167 20083 58021
KPMP 101653Z 32015G20KT 10SM CLR 16/02 A3025 RMK AO2 SLP245 T01560017
KPMP 101553Z 35013KT 10SM CLR 14/01 A3028 RMK AO2 SLP253 T01390011
KPMP 101453Z 33011KT 10SM CLR 12/01 A3028 RMK AO2 SLP255 T01220011 51016
KPMP 101353Z 32013KT 10SM CLR 11/01 A3028 RMK AO2 SLP253 T01060011
KPMP 101253Z 33017KT 10SM CLR 09/01 A3025 RMK AO2 SLP245 T00890006
KPMP 101153Z 32014G22KT 10SM CLR 08/01 A3023 RMK AO2 SLP238 70021 T00830006 10122 20083 53022
KPMP 101053Z AUTO 33014G18KT 10SM CLR 09/01 A3021 RMK AO2 SLP230 T00890011
KPMP 100953Z AUTO 32012KT 10SM CLR 09/02 A3018 RMK AO2 SLP221 T00940022
KPMP 100853Z AUTO 33013G21KT 10SM CLR 10/01 A3017 RMK AO2 SLP216 T01000006 53006
KPMP 100753Z AUTO 32014KT 10SM CLR 11/04 A3015 RMK AO2 SLP211 T01060039
KPMP 100653Z AUTO 32014KT 10SM CLR 12/06 A3015 RMK AO2 SLP210 T01170056
KPMP 100553Z AUTO 32018G23KT 10SM CLR 12/06 A3015 RMK AO2 SLP210 T01220061 10172 20122 50003
KPMP 100453Z AUTO 32015KT 10SM FEW021 14/10 A3015 RMK AO2 SLP210 T01390100 402670139
KPMP 100449Z AUTO 33015KT 10SM SCT021 14/10 A3015 RMK AO2
KPMP 100403Z AUTO 32017KT 10SM BKN021 BKN027 14/11 A3015 RMK AO2 T01440111
KPMP 100353Z AUTO 32015G20KT 10SM FEW021 SCT027 15/12 A3014 RMK AO2 SLP207 T01500117